Time;durP1;ratioP1;P1;durP2;ratioP2;P2;SDS_P1;SDS_P2;PMS_P1;PMS_P2;Temp;Humidity;BMP_temperature;BMP_pressure;BME280_temperature;BME280_humidity;BME280_pressure;Samples;Min_cycle;Max_cycle;Signal;HPM_P1;HPM_P2
2022/06/20 00:00:30;;;;;;;2.30;1.90;;;26.60;1.00;;;;;;5095949;28;20826;-73
2022/06/20 00:02:59;;;;;;;4.47;2.33;;;26.50;1.00;;;;;;5097480;28;20485;-73
2022/06/20 00:05:29;;;;;;;5.40;2.10;;;26.50;1.00;;;;;;5096509;28;20501;-73
2022/06/20 00:07:56;;;;;;;4.90;4.17;;;26.40;1.00;;;;;;5096118;28;20495;-73
2022/06/20 00:10:28;;;;;;;3.43;2.10;;;26.40;1.00;;;;;;5090692;28;20468;-73
2022/06/20 00:12:55;;;;;;;4.47;2.40;;;26.30;1.00;;;;;;5096661;28;20786;-73
2022/06/20 00:15:25;;;;;;;2.27;2.07;;;26.30;1.00;;;;;;5095933;28;20596;-73
2022/06/20 00:17:53;;;;;;;3.50;2.27;;;26.20;1.00;;;;;;5093492;28;20532;-73
2022/06/20 00:20:22;;;;;;;2.57;2.10;;;26.20;1.00;;;;;;5088366;28;20517;-73
2022/06/20 00:22:48;;;;;;;2.10;1.73;;;26.20;1.00;;;;;;5076733;28;20928;-73
2022/06/20 00:25:16;;;;;;;6.80;2.20;;;26.20;1.00;;;;;;5076796;28;20486;-73
2022/06/20 00:27:44;;;;;;;2.10;1.67;;;26.10;1.00;;;;;;5075779;28;20478;-72
2022/06/20 00:30:13;;;;;;;3.03;2.03;;;25.90;1.00;;;;;;5092509;28;20564;-73
2022/06/20 00:32:42;;;;;;;2.90;1.57;;;25.80;1.00;;;;;;5115356;28;20452;-73
2022/06/20 00:35:10;;;;;;;3.37;2.07;;;25.80;1.00;;;;;;5117190;28;20509;-73
2022/06/20 00:37:39;;;;;;;4.73;2.00;;;25.70;1.00;;;;;;5086788;28;20494;-72
2022/06/20 00:40:20;;;;;;;3.80;1.90;;;25.70;1.00;;;;;;5076003;28;20512;-72
2022/06/20 00:42:47;;;;;;;3.07;2.87;;;25.70;1.00;;;;;;5075674;28;20838;-75
2022/06/20 00:45:15;;;;;;;2.73;2.30;;;25.70;1.00;;;;;;5075579;28;20563;-73
2022/06/20 00:47:46;;;;;;;2.13;1.90;;;25.70;1.00;;;;;;5077093;28;20800;-74
2022/06/20 00:50:18;;;;;;;2.23;1.87;;;25.70;1.00;;;;;;5076613;28;20492;-73
2022/06/20 00:52:54;;;;;;;3.00;2.20;;;25.80;1.00;;;;;;5079930;28;20928;-74
2022/06/20 00:55:25;;;;;;;6.23;1.90;;;25.90;1.00;;;;;;5098771;28;20452;-73
2022/06/20 00:57:57;;;;;;;2.70;2.10;;;25.90;1.00;;;;;;5116816;28;20528;-74
2022/06/20 01:00:27;;;;;;;4.77;2.33;;;25.90;1.00;;;;;;5116888;28;20957;-72
2022/06/20 01:02:59;;;;;;;3.30;2.50;;;26.00;8.30;;;;;;5097784;28;20434;-72
2022/06/20 01:05:35;;;;;;;6.20;2.20;;;26.10;1.00;;;;;;5098802;28;20457;-73
2022/06/20 01:08:09;;;;;;;4.67;3.30;;;26.10;99.90;;;;;;5110456;28;20571;-73
2022/06/20 01:10:45;;;;;;;3.97;2.33;;;25.70;1.00;;;;;;5117110;28;20551;-73
2022/06/20 01:13:16;;;;;;;4.43;2.50;;;25.20;1.00;;;;;;5108008;28;20552;-72
2022/06/20 01:15:45;;;;;;;6.10;2.63;;;24.60;1.00;;;;;;5093463;28;20547;-72
2022/06/20 01:18:17;;;;;;;3.50;2.60;;;24.00;1.00;;;;;;5107444;28;20851;-72
2022/06/20 01:20:45;;;;;;;5.93;3.47;;;23.50;1.00;;;;;;5116092;28;20489;-74
2022/06/20 01:23:26;;;;;;;4.63;3.47;;;23.30;1.00;;;;;;5089857;28;20977;-73
2022/06/20 01:26:03;;;;;;;7.73;3.03;;;23.30;1.00;;;;;;5077352;28;20469;-72
2022/06/20 01:28:36;;;;;;;4.27;3.50;;;23.50;19.60;;;;;;5093168;28;20949;-72
2022/06/20 01:31:04;;;;;;;4.10;3.57;;;23.70;51.20;;;;;;5091261;28;20511;-72
2022/06/20 01:33:32;;;;;;;5.80;3.07;;;23.80;34.20;;;;;;5074398;28;20488;-72
2022/06/20 01:38:45;;;;;;;3.07;1.90;;;24.10;1.00;;;;;;5074831;28;20422;-72
2022/06/20 01:44:01;;;;;;;3.93;2.63;;;24.10;24.90;;;;;;5076063;28;20438;-71
2022/06/20 01:46:30;;;;;;;4.33;2.57;;;23.80;33.80;;;;;;5075798;28;20589;-71
2022/06/20 01:49:00;;;;;;;4.67;2.30;;;23.60;8.40;;;;;;5074526;28;20542;-71
2022/06/20 01:51:31;;;;;;;2.40;2.00;;;23.50;32.10;;;;;;5075726;28;20458;-72
2022/06/20 01:53:59;;;;;;;8.90;2.93;;;23.70;40.10;;;;;;5090682;28;20463;-73
2022/06/20 01:56:28;;;;;;;6.40;3.80;;;23.70;53.90;;;;;;5116300;28;20543;-71
2022/06/20 01:59:00;;;;;;;4.07;3.07;;;23.70;44.50;;;;;;5102003;28;20462;-72
2022/06/20 02:01:29;;;;;;;5.00;2.70;;;23.50;54.60;;;;;;5079818;28;20834;-72
2022/06/20 02:03:56;;;;;;;6.50;3.00;;;23.40;32.30;;;;;;5110229;28;20457;-72
2022/06/20 02:06:23;;;;;;;3.50;3.10;;;23.50;14.80;;;;;;5119893;28;20543;-72
2022/06/20 02:08:54;;;;;;;3.27;2.87;;;23.40;1.00;;;;;;5087367;28;20924;-72
2022/06/20 02:11:24;;;;;;;2.97;2.67;;;23.40;37.90;;;;;;5082795;28;20548;-73
2022/06/20 02:13:56;;;;;;;8.23;3.20;;;23.50;26.10;;;;;;5118612;28;20845;-72
2022/06/20 02:16:26;;;;;;;6.57;3.73;;;23.50;37.10;;;;;;5112253;28;20470;-73
2022/06/20 02:18:56;;;;;;;7.17;2.90;;;23.70;27.20;;;;;;5079474;28;20954;-73
2022/06/20 02:21:27;;;;;;;2.80;2.60;;;23.70;68.60;;;;;;5094174;28;20959;-73
2022/06/20 02:24:00;;;;;;;3.97;3.40;;;23.50;34.00;;;;;;5105061;28;20558;-74
2022/06/20 02:26:29;;;;;;;7.10;3.07;;;23.50;68.90;;;;;;5093938;28;20549;-73
2022/06/20 02:29:01;;;;;;;3.70;2.43;;;23.40;66.80;;;;;;5078740;28;20490;-72
2022/06/20 02:31:30;;;;;;;4.40;2.23;;;23.40;77.30;;;;;;5081831;28;20465;-73
2022/06/20 02:33:57;;;;;;;4.03;3.20;;;23.70;46.10;;;;;;5078872;28;20537;-73
2022/06/20 02:36:25;;;;;;;6.80;3.83;;;23.80;24.80;;;;;;5078187;28;20553;-73
2022/06/20 02:38:52;;;;;;;4.17;2.30;;;23.90;46.90;;;;;;5078424;28;20454;-73
2022/06/20 02:41:24;;;;;;;2.47;1.80;;;23.90;77.30;;;;;;5095999;28;20460;-73
2022/06/20 02:43:56;;;;;;;4.30;2.10;;;23.80;97.70;;;;;;5105293;28;20564;-73
2022/06/20 02:46:27;;;;;;;4.20;2.90;;;23.70;92.30;;;;;;5078941;28;20482;-73
2022/06/20 02:48:57;;;;;;;7.40;2.90;;;23.70;93.90;;;;;;5078788;28;20937;-72
2022/06/20 02:51:29;;;;;;;6.47;2.87;;;23.50;72.20;;;;;;5107094;28;20532;-72
2022/06/20 02:53:58;;;;;;;4.73;2.80;;;23.40;25.50;;;;;;5101799;28;20504;-73
2022/06/20 02:56:28;;;;;;;6.10;2.83;;;23.20;6.40;;;;;;5098006;28;20450;-73
2022/06/20 02:58:58;;;;;;;6.40;2.37;;;23.10;18.70;;;;;;5095456;28;20556;-73
2022/06/20 03:01:34;;;;;;;8.93;2.00;;;23.10;10.20;;;;;;5112318;28;20548;-73
2022/06/20 03:04:03;;;;;;;3.53;2.03;;;23.00;46.90;;;;;;5077455;28;20765;-73
2022/06/20 03:06:34;;;;;;;4.30;1.80;;;23.00;1.00;;;;;;5076513;28;20541;-73
2022/06/20 03:09:02;;;;;;;3.73;2.07;;;23.00;1.00;;;;;;5093176;28;20987;-73
2022/06/20 03:11:32;;;;;;;4.40;1.60;;;23.20;1.00;;;;;;5095013;28;20462;-74
2022/06/20 03:14:00;;;;;;;5.00;2.50;;;23.30;1.00;;;;;;5076765;28;20512;-73
2022/06/20 03:16:28;;;;;;;8.00;1.93;;;23.40;1.00;;;;;;5077683;28;20908;-73
2022/06/20 03:18:58;;;;;;;2.67;1.80;;;23.30;1.00;;;;;;5109160;28;20884;-73
2022/06/20 03:21:32;;;;;;;2.73;2.00;;;23.40;1.00;;;;;;5079602;28;20490;-73
2022/06/20 03:23:59;;;;;;;4.07;2.20;;;23.50;1.00;;;;;;5075818;28;20931;-72
2022/06/20 03:26:27;;;;;;;3.57;1.80;;;23.60;1.00;;;;;;5081299;28;20542;-73
2022/06/20 03:28:55;;;;;;;3.70;1.87;;;23.70;1.00;;;;;;5112421;28;20521;-73
2022/06/20 03:31:22;;;;;;;2.87;2.00;;;23.70;1.00;;;;;;5098519;28;20492;-73
2022/06/20 03:33:49;;;;;;;5.63;1.93;;;23.50;1.00;;;;;;5098621;28;20559;-73
2022/06/20 03:36:20;;;;;;;4.03;1.80;;;23.50;1.00;;;;;;5081356;28;20964;-73
2022/06/20 03:38:49;;;;;;;3.57;2.07;;;23.40;1.00;;;;;;5076511;28;20469;-72
2022/06/20 03:41:18;;;;;;;4.67;1.77;;;23.40;1.00;;;;;;5077577;28;20538;-74
2022/06/20 03:43:50;;;;;;;2.90;1.90;;;23.80;1.00;;;;;;5098682;28;20552;-73
2022/06/20 03:46:21;;;;;;;2.10;1.90;;;23.50;1.00;;;;;;5118071;28;20531;-74
2022/06/20 03:48:56;;;;;;;3.30;1.93;;;23.30;1.00;;;;;;5096476;28;20568;-74
2022/06/20 03:51:29;;;;;;;5.57;1.97;;;23.30;1.00;;;;;;5094406;28;20858;-73
2022/06/20 03:54:01;;;;;;;4.00;2.63;;;23.00;10.30;;;;;;5103316;28;20537;-73
2022/06/20 03:56:33;;;;;;;5.50;2.33;;;22.80;13.20;;;;;;5089226;28;20553;-73
2022/06/20 03:59:05;;;;;;;4.87;2.40;;;22.80;18.90;;;;;;5076598;28;20553;-73
2022/06/20 04:01:38;;;;;;;3.93;2.97;;;22.70;20.70;;;;;;5087768;28;20556;-74
2022/06/20 04:04:11;;;;;;;3.40;2.97;;;22.60;29.30;;;;;;5096966;28;20449;-74
2022/06/20 04:06:42;;;;;;;4.87;3.17;;;22.50;20.90;;;;;;5096120;28;20497;-74
2022/06/20 04:12:05;;;;;;;2.47;2.20;;;22.50;1.00;;;;;;5094615;28;20437;-74
2022/06/20 04:14:38;;;;;;;8.20;4.00;;;22.40;22.00;;;;;;5088551;28;20565;-76
2022/06/20 04:20:06;;;;;;;5.70;1.67;;;22.20;95.10;;;;;;5078766;28;20454;-75
2022/06/20 04:22:39;;;;;;;2.93;1.60;;;22.10;99.90;;;;;;5080857;28;20514;-75
2022/06/20 04:25:21;;;;;;;2.97;2.50;;;22.10;97.60;;;;;;5075305;28;20502;-76
2022/06/20 04:27:54;;;;;;;5.87;2.53;;;22.00;99.90;;;;;;5075947;28;21023;-75
2022/06/20 04:30:34;;;;;;;3.53;2.27;;;22.00;99.90;;;;;;5086090;28;20547;-75
2022/06/20 04:33:05;;;;;;;3.23;2.13;;;21.90;99.90;;;;;;5094825;28;20549;-74
2022/06/20 04:35:36;;;;;;;4.33;2.50;;;21.90;99.90;;;;;;5076171;28;20546;-74
2022/06/20 04:38:12;;;;;;;5.37;3.30;;;21.60;99.90;;;;;;5075291;28;20529;-75
2022/06/20 04:40:47;;;;;;;6.10;2.43;;;21.30;99.90;;;;;;5078535;28;20462;-75
2022/06/20 04:43:19;;;;;;;3.10;2.60;;;21.10;99.90;;;;;;5074850;28;20558;-75
2022/06/20 04:45:50;;;;;;;3.70;2.60;;;21.00;99.90;;;;;;5074160;28;20540;-75
2022/06/20 04:48:19;;;;;;;2.80;2.37;;;20.90;99.90;;;;;;5075477;28;20933;-75
2022/06/20 04:50:49;;;;;;;6.43;3.20;;;21.10;99.90;;;;;;5082760;28;20897;-74
2022/06/20 04:53:19;;;;;;;3.63;2.10;;;21.10;99.90;;;;;;5083477;28;20481;-75
2022/06/20 04:55:51;;;;;;;5.77;1.97;;;21.00;99.90;;;;;;5095315;28;20527;-75
2022/06/20 04:58:21;;;;;;;3.27;1.77;;;21.30;99.90;;;;;;5097729;28;20464;-74
2022/06/20 05:00:51;;;;;;;4.90;2.40;;;21.50;99.90;;;;;;5082341;28;20511;-75
2022/06/20 05:03:22;;;;;;;4.20;2.57;;;21.70;99.90;;;;;;5073879;28;20453;-74
2022/06/20 05:05:52;;;;;;;2.63;2.10;;;21.70;95.70;;;;;;5074365;28;20541;-74
2022/06/20 05:08:25;;;;;;;4.43;2.33;;;21.70;99.90;;;;;;5081837;28;20474;-73
2022/06/20 05:10:57;;;;;;;2.93;2.00;;;21.80;99.90;;;;;;5074705;28;20507;-75
2022/06/20 05:13:29;;;;;;;4.77;2.20;;;21.60;87.00;;;;;;5098678;28;20763;-75
2022/06/20 05:15:57;;;;;;;7.63;2.60;;;21.70;99.00;;;;;;5115243;28;20533;-75
2022/06/20 05:18:29;;;;;;;2.50;2.00;;;21.90;36.00;;;;;;5088534;28;20463;-74
2022/06/20 05:21:00;;;;;;;5.13;1.83;;;22.10;47.00;;;;;;5077388;28;20548;-75
2022/06/20 05:23:34;;;;;;;3.53;1.90;;;22.20;1.00;;;;;;5093153;28;20848;-74
2022/06/20 05:26:05;;;;;;;5.00;2.03;;;22.30;10.10;;;;;;5112992;28;20531;-74
2022/06/20 05:28:34;;;;;;;5.30;1.83;;;22.20;1.00;;;;;;5074638;28;20510;-75
2022/06/20 05:31:02;;;;;;;2.57;2.13;;;22.10;1.00;;;;;;5096804;28;20532;-74
2022/06/20 05:33:32;;;;;;;3.40;1.60;;;22.00;14.80;;;;;;5094265;28;20983;-75
2022/06/20 05:36:03;;;;;;;2.00;1.40;;;21.90;43.20;;;;;;5088526;28;20474;-76
2022/06/20 05:38:36;;;;;;;4.30;2.93;;;21.70;64.50;;;;;;5097132;28;20851;-75
2022/06/20 05:41:07;;;;;;;3.43;2.67;;;21.60;99.90;;;;;;5091375;28;20438;-76
2022/06/20 05:43:36;;;;;;;3.73;2.87;;;21.70;99.90;;;;;;5095914;28;20555;-75
2022/06/20 05:46:13;;;;;;;2.93;2.63;;;21.60;99.90;;;;;;5094439;28;20552;-74
2022/06/20 05:48:49;;;;;;;2.30;2.03;;;21.50;99.90;;;;;;5102078;28;20580;-74
2022/06/20 05:51:20;;;;;;;4.80;2.30;;;21.40;99.90;;;;;;5096468;28;20920;-74
2022/06/20 05:53:50;;;;;;;4.33;2.03;;;21.30;99.90;;;;;;5090318;28;20462;-74
2022/06/20 05:56:26;;;;;;;2.30;1.60;;;21.40;99.90;;;;;;5096810;28;20469;-74
2022/06/20 05:58:57;;;;;;;5.83;2.20;;;21.40;99.90;;;;;;5093076;28;20457;-75
2022/06/20 06:01:30;;;;;;;3.30;1.93;;;21.60;99.90;;;;;;5085491;28;20535;-74
2022/06/20 06:04:05;;;;;;;3.40;2.00;;;21.60;99.10;;;;;;5095162;28;20477;-74
2022/06/20 06:06:39;;;;;;;3.43;2.00;;;21.70;99.90;;;;;;5096931;28;20491;-73
2022/06/20 06:09:12;;;;;;;2.63;1.40;;;21.90;99.90;;;;;;5097090;28;20576;-73
2022/06/20 06:11:49;;;;;;;7.67;2.70;;;22.00;88.00;;;;;;5097463;28;20501;-73
2022/06/20 06:14:25;;;;;;;6.63;2.43;;;22.20;81.10;;;;;;5081302;28;20464;-73
2022/06/20 06:16:57;;;;;;;2.73;2.03;;;22.30;70.20;;;;;;5096965;28;20846;-72
2022/06/20 06:19:40;;;;;;;4.47;2.57;;;22.60;15.00;;;;;;5097176;28;20469;-72
2022/06/20 06:22:19;;;;;;;4.77;3.30;;;22.80;1.00;;;;;;5096030;27;20507;-73
2022/06/20 06:25:00;;;;;;;2.50;1.47;;;22.90;1.00;;;;;;5092630;28;20465;-73
2022/06/20 06:27:35;;;;;;;3.60;1.93;;;23.00;1.00;;;;;;5097957;28;20514;-73
2022/06/20 06:30:07;;;;;;;2.73;2.27;;;23.00;1.00;;;;;;5097693;28;20441;-73
2022/06/20 06:32:40;;;;;;;5.80;2.57;;;23.00;1.00;;;;;;5096315;28;20557;-73
2022/06/20 06:35:24;;;;;;;3.07;2.00;;;22.90;1.00;;;;;;5101560;28;20541;-74
2022/06/20 06:37:58;;;;;;;3.63;1.87;;;23.00;1.00;;;;;;5095516;28;20453;-73
2022/06/20 06:40:32;;;;;;;3.33;2.10;;;23.00;1.00;;;;;;5095219;28;20537;-73
2022/06/20 06:43:12;;;;;;;2.40;2.17;;;23.10;1.00;;;;;;5094980;28;20454;-74
2022/06/20 06:45:39;;;;;;;3.13;1.80;;;23.10;1.00;;;;;;5085985;28;20574;-74
2022/06/20 06:48:10;;;;;;;2.03;1.60;;;23.30;1.00;;;;;;5093672;28;20584;-74
2022/06/20 06:50:42;;;;;;;3.50;2.10;;;23.40;1.00;;;;;;5088541;28;20449;-74
2022/06/20 06:53:16;;;;;;;5.30;2.40;;;23.40;1.00;;;;;;5095635;28;20552;-74
2022/06/20 06:55:47;;;;;;;1.70;1.50;;;23.50;1.00;;;;;;5105130;28;20465;-75
2022/06/20 06:58:21;;;;;;;6.77;1.70;;;23.50;1.00;;;;;;5112085;28;20726;-75
2022/06/20 07:00:54;;;;;;;5.97;2.23;;;23.50;1.00;;;;;;5095699;28;20446;-75
2022/06/20 07:03:27;;;;;;;4.00;1.50;;;23.40;1.00;;;;;;5090246;28;20462;-74
2022/06/20 07:05:59;;;;;;;2.33;1.47;;;23.00;1.00;;;;;;5091134;28;20540;-76
2022/06/20 07:08:29;;;;;;;2.60;1.80;;;23.00;1.00;;;;;;5094872;28;20563;-76
2022/06/20 07:11:05;;;;;;;3.50;1.80;;;23.20;1.00;;;;;;5095590;28;20473;-75
2022/06/20 07:13:49;;;;;;;2.50;1.87;;;23.40;1.00;;;;;;5095798;28;20542;-77
2022/06/20 07:16:22;;;;;;;2.97;2.23;;;23.60;1.00;;;;;;5095018;28;20448;-77
2022/06/20 07:18:52;;;;;;;1.90;1.57;;;23.70;1.00;;;;;;5092825;28;20485;-78
2022/06/20 07:21:26;;;;;;;3.57;1.73;;;23.60;99.90;;;;;;5095810;28;20487;-77
2022/06/20 07:23:57;;;;;;;3.83;1.50;;;23.60;99.90;;;;;;5095323;28;20485;-77
2022/06/20 07:26:29;;;;;;;1.60;1.30;;;23.80;1.00;;;;;;5095259;28;20434;-77
2022/06/20 07:29:04;;;;;;;2.83;1.97;;;23.90;99.90;;;;;;5094899;28;20478;-77
2022/06/20 07:31:38;;;;;;;2.30;1.60;;;24.00;37.70;;;;;;5096254;28;20556;-75
2022/06/20 07:34:12;;;;;;;3.33;1.77;;;24.10;99.90;;;;;;5091610;28;20929;-76
2022/06/20 07:36:44;;;;;;;2.20;1.70;;;24.30;1.00;;;;;;5094458;28;20472;-76
2022/06/20 07:39:19;;;;;;;4.77;2.30;;;24.40;10.20;;;;;;5095196;28;20893;-76
2022/06/20 07:41:52;;;;;;;2.00;1.50;;;24.50;99.90;;;;;;5086464;28;20464;-75
2022/06/20 07:44:27;;;;;;;2.93;1.30;;;24.50;1.00;;;;;;5095382;28;20460;-76
2022/06/20 07:46:59;;;;;;;2.47;1.63;;;24.50;99.90;;;;;;5094562;28;20528;-76
2022/06/20 07:49:32;;;;;;;3.30;3.00;;;24.50;99.90;;;;;;5086954;28;20481;-76
2022/06/20 07:52:06;;;;;;;1.77;1.50;;;24.60;1.00;;;;;;5092847;28;20458;-76
2022/06/20 07:54:39;;;;;;;4.73;1.60;;;24.50;1.00;;;;;;5094684;28;20449;-76
2022/06/20 07:57:14;;;;;;;3.00;1.60;;;24.70;1.00;;;;;;5086387;28;20500;-75
2022/06/20 07:59:48;;;;;;;3.13;1.87;;;24.70;99.90;;;;;;5088762;28;20948;-75
2022/06/20 08:02:19;;;;;;;2.57;2.03;;;24.90;99.90;;;;;;5095611;28;20491;-75
2022/06/20 08:04:51;;;;;;;9.70;1.70;;;25.10;1.00;;;;;;5094012;28;20473;-76
2022/06/20 08:07:24;;;;;;;4.97;1.57;;;25.30;69.00;;;;;;5075440;28;20459;-75
2022/06/20 08:09:55;;;;;;;2.43;1.30;;;25.40;1.00;;;;;;5090647;28;20951;-76
2022/06/20 08:12:29;;;;;;;2.90;1.87;;;25.50;99.90;;;;;;5095570;28;20571;-76
2022/06/20 08:15:04;;;;;;;3.40;1.23;;;25.70;1.00;;;;;;5092574;28;20967;-76
2022/06/20 08:17:32;;;;;;;4.07;1.60;;;25.90;53.70;;;;;;5093228;28;20760;-75
2022/06/20 08:20:01;;;;;;;3.73;1.60;;;26.00;99.90;;;;;;5095997;28;20486;-75
2022/06/20 08:22:33;;;;;;;3.93;1.43;;;26.00;99.90;;;;;;5094207;28;20540;-73
2022/06/20 08:25:07;;;;;;;1.90;1.40;;;26.10;33.00;;;;;;5091889;28;20450;-72
2022/06/20 08:27:40;;;;;;;6.83;2.50;;;26.00;53.30;;;;;;5092890;28;20548;-72
2022/06/20 08:30:14;;;;;;;2.17;1.40;;;26.00;88.10;;;;;;5092961;28;20751;-73
2022/06/20 08:32:55;;;;;;;3.77;1.50;;;26.00;1.00;;;;;;5094960;28;20215;-75
2022/06/20 08:35:29;;;;;;;7.57;1.47;;;26.10;1.00;;;;;;5095538;28;20540;-77
2022/06/20 08:38:01;;;;;;;2.70;1.50;;;26.20;1.00;;;;;;5094397;28;20522;-75
2022/06/20 08:41:05;;;;;;;5.47;1.40;;;26.20;1.00;;;;;;5094227;28;20536;-73
2022/06/20 08:43:53;;;;;;;6.00;1.30;;;26.20;1.00;;;;;;5094115;28;20510;-73
2022/06/20 08:46:52;;;;;;;2.97;1.23;;;26.10;1.00;;;;;;5094126;28;20449;-73
2022/06/20 08:49:50;;;;;;;2.47;1.57;;;25.90;1.00;;;;;;5058254;28;20516;-73
2022/06/20 08:52:45;;;;;;;2.00;1.43;;;26.10;1.00;;;;;;5091997;28;20460;-72
2022/06/20 08:55:39;;;;;;;2.90;1.30;;;26.30;1.00;;;;;;5093934;28;20449;-72
2022/06/20 08:58:21;;;;;;;3.60;1.80;;;26.40;1.00;;;;;;5095124;28;20963;-75
2022/06/20 09:00:56;;;;;;;3.43;1.37;;;26.30;1.00;;;;;;5095948;28;20472;-77
2022/06/20 09:03:46;;;;;;;3.20;1.50;;;26.50;1.00;;;;;;5076750;28;20438;-74
2022/06/20 09:06:43;;;;;;;4.20;1.97;;;26.70;1.00;;;;;;5091384;28;20946;-74
2022/06/20 09:09:28;;;;;;;1.57;1.30;;;26.90;1.00;;;;;;5091151;28;21022;-75
2022/06/20 09:12:13;;;;;;;1.97;1.63;;;27.10;1.00;;;;;;5093996;28;20884;-74
2022/06/20 09:15:03;;;;;;;1.83;1.73;;;27.10;1.00;;;;;;5095707;28;20993;-72
2022/06/20 09:17:45;;;;;;;1.80;1.40;;;27.30;1.00;;;;;;5095798;28;20812;-74
2022/06/20 09:20:23;;;;;;;3.50;1.57;;;27.30;1.00;;;;;;5094365;28;20927;-73
2022/06/20 09:23:07;;;;;;;2.07;1.30;;;27.50;1.00;;;;;;5095108;28;20460;-72
2022/06/20 09:25:41;;;;;;;3.17;1.60;;;27.40;1.00;;;;;;5094164;28;20485;-74
2022/06/20 09:28:46;;;;;;;2.00;1.27;;;27.40;1.00;;;;;;5094103;28;20485;-74
2022/06/20 09:31:30;;;;;;;3.90;1.97;;;27.50;1.00;;;;;;5043217;28;20441;-72
2022/06/20 09:34:15;;;;;;;2.00;1.60;;;27.40;1.00;;;;;;5074013;28;20458;-74
2022/06/20 09:37:11;;;;;;;1.80;1.53;;;27.60;1.00;;;;;;5088931;28;20793;-72
2022/06/20 09:40:08;;;;;;;2.17;1.50;;;27.80;1.00;;;;;;5093791;28;20446;-73
2022/06/20 09:42:40;;;;;;;1.50;1.33;;;28.20;1.00;;;;;;5091575;28;20503;-74
2022/06/20 09:45:15;;;;;;;1.93;1.40;;;28.60;1.00;;;;;;5092085;28;20520;-74
2022/06/20 09:47:52;;;;;;;2.80;1.30;;;28.70;1.00;;;;;;5082853;28;20551;-74
2022/06/20 09:50:35;;;;;;;4.77;1.30;;;28.80;1.00;;;;;;5089314;28;20504;-75
2022/06/20 09:53:12;;;;;;;2.43;1.97;;;29.00;1.00;;;;;;5093669;28;20465;-74
2022/06/20 09:55:51;;;;;;;3.20;2.00;;;29.10;1.00;;;;;;5074592;28;20452;-75
2022/06/20 09:58:27;;;;;;;3.20;1.33;;;29.00;1.00;;;;;;5093638;28;20880;-74
2022/06/20 10:01:02;;;;;;;2.03;1.83;;;29.20;1.00;;;;;;5073367;28;20450;-75
2022/06/20 10:03:41;;;;;;;2.67;1.20;;;29.30;1.00;;;;;;5073464;28;20510;-75
2022/06/20 10:06:16;;;;;;;3.40;1.77;;;29.60;1.00;;;;;;5088161;28;20553;-75
2022/06/20 10:08:56;;;;;;;5.97;1.50;;;30.00;1.00;;;;;;5091406;28;20536;-73
2022/06/20 10:11:30;;;;;;;1.73;1.37;;;30.10;1.00;;;;;;5083776;28;20843;-75
2022/06/20 10:14:04;;;;;;;1.47;1.30;;;30.20;1.00;;;;;;5088902;28;20857;-74
2022/06/20 10:16:37;;;;;;;5.00;2.33;;;30.40;1.00;;;;;;5087130;28;20546;-74
2022/06/20 10:19:12;;;;;;;4.00;2.93;;;30.20;1.00;;;;;;5084431;28;20508;-73
2022/06/20 10:21:45;;;;;;;1.50;1.30;;;30.10;1.00;;;;;;5084735;28;20456;-74
2022/06/20 10:24:36;;;;;;;4.90;3.23;;;30.20;1.00;;;;;;5096398;28;20437;-74
2022/06/20 10:27:40;;;;;;;3.80;2.20;;;30.20;1.00;;;;;;5092349;28;20490;-74
2022/06/20 10:30:11;;;;;;;2.47;1.50;;;30.40;1.00;;;;;;5071657;28;20493;-74
2022/06/20 10:32:56;;;;;;;2.27;1.17;;;30.90;1.00;;;;;;5077889;28;20884;-74
2022/06/20 10:35:39;;;;;;;3.10;1.90;;;31.00;1.00;;;;;;5093189;28;20453;-74
2022/06/20 10:38:11;;;;;;;2.13;1.10;;;30.40;1.00;;;;;;5091001;28;20469;-73
2022/06/20 10:40:50;;;;;;;1.73;1.33;;;30.30;1.00;;;;;;5095434;28;20477;-74
2022/06/20 10:43:31;;;;;;;3.40;1.37;;;30.10;1.00;;;;;;5095471;28;20426;-74
2022/06/20 10:46:02;;;;;;;1.30;1.10;;;30.10;1.00;;;;;;5095361;28;20449;-74
2022/06/20 10:49:04;;;;;;;2.13;0.87;;;30.20;1.00;;;;;;5092463;28;20541;-74
2022/06/20 10:51:39;;;;;;;1.10;1.00;;;30.00;1.00;;;;;;5018836;28;20540;-75
2022/06/20 10:54:22;;;;;;;1.23;1.00;;;30.10;1.00;;;;;;5094321;28;20988;-75
2022/06/20 10:57:14;;;;;;;1.20;0.90;;;30.20;1.00;;;;;;5095425;28;21167;-76
2022/06/20 10:59:51;;;;;;;4.63;0.90;;;30.50;1.00;;;;;;5094990;28;20473;-75
2022/06/20 11:02:34;;;;;;;1.63;1.10;;;30.30;1.00;;;;;;5090010;28;20462;-75
2022/06/20 11:05:10;;;;;;;2.57;1.10;;;30.50;1.00;;;;;;5083664;28;20845;-75
2022/06/20 11:07:44;;;;;;;1.43;0.90;;;30.40;1.00;;;;;;5074823;28;21083;-75
2022/06/20 11:10:26;;;;;;;1.30;0.90;;;30.10;1.00;;;;;;5079848;28;20861;-76
2022/06/20 11:13:01;;;;;;;2.20;1.00;;;30.10;1.00;;;;;;5094689;28;20540;-75
2022/06/20 11:15:37;;;;;;;1.20;1.00;;;29.70;1.00;;;;;;5078445;28;20535;-75
2022/06/20 11:18:21;;;;;;;1.20;0.90;;;29.70;1.00;;;;;;5074691;28;20553;-75
2022/06/20 11:20:54;;;;;;;1.40;0.97;;;29.70;1.00;;;;;;5074379;28;20912;-75
2022/06/20 11:23:26;;;;;;;1.67;0.90;;;29.60;1.00;;;;;;5075313;28;20542;-75
2022/06/20 11:26:03;;;;;;;1.77;0.90;;;29.50;1.00;;;;;;5076137;28;20450;-75
2022/06/20 11:29:15;;;;;;;1.10;0.90;;;29.40;1.00;;;;;;5093545;28;20453;-75
2022/06/20 11:31:53;;;;;;;1.33;0.97;;;29.10;1.00;;;;;;5010989;28;20518;-75
2022/06/20 11:34:35;;;;;;;3.03;1.10;;;29.00;1.00;;;;;;5073486;28;20458;-75
2022/06/20 11:37:16;;;;;;;1.40;1.20;;;29.00;1.00;;;;;;5066042;28;21120;-76
2022/06/20 11:39:59;;;;;;;2.30;1.20;;;29.30;1.00;;;;;;5095286;28;20448;-74
2022/06/20 11:42:54;;;;;;;4.73;1.80;;;29.10;1.00;;;;;;5086584;28;20885;-75
2022/06/20 11:45:52;;;;;;;2.30;1.30;;;28.90;1.00;;;;;;5075456;28;20453;-75
2022/06/20 11:48:51;;;;;;;2.40;1.53;;;29.00;1.00;;;;;;5075450;28;20558;-74
2022/06/20 11:51:26;;;;;;;1.90;1.30;;;28.80;1.00;;;;;;5096942;28;20521;-75
2022/06/20 11:54:06;;;;;;;1.87;1.33;;;28.70;1.00;;;;;;5114474;28;20509;-76
2022/06/20 11:56:41;;;;;;;3.50;1.30;;;28.50;1.00;;;;;;5115975;28;20742;-76
2022/06/20 11:59:20;;;;;;;2.63;1.30;;;28.20;1.00;;;;;;5109085;28;20891;-75
2022/06/20 12:01:56;;;;;;;1.63;1.17;;;28.00;1.00;;;;;;5110546;28;20473;-73
2022/06/20 12:04:34;;;;;;;1.50;1.13;;;28.00;1.00;;;;;;5115037;28;20444;-74
2022/06/20 12:07:12;;;;;;;1.33;1.10;;;28.10;1.00;;;;;;5114157;28;20461;-75
2022/06/20 12:09:45;;;;;;;1.20;1.00;;;27.90;1.00;;;;;;5114063;28;20511;-75
2022/06/20 12:12:28;;;;;;;3.87;1.30;;;28.00;1.00;;;;;;5115271;28;20822;-76
2022/06/20 12:15:19;;;;;;;4.63;1.10;;;27.80;1.00;;;;;;5114444;28;20891;-75
2022/06/20 12:17:54;;;;;;;3.00;1.03;;;28.00;1.00;;;;;;5096911;28;20461;-74
2022/06/20 12:23:24;;;;;;;3.23;1.10;;;27.70;1.00;;;;;;5094528;28;20436;-73
2022/06/20 12:25:59;;;;;;;1.93;0.80;;;27.60;1.00;;;;;;5094605;28;20877;-73
2022/06/20 12:28:31;;;;;;;2.30;0.83;;;27.60;1.00;;;;;;5096031;28;20514;-74
2022/06/20 12:31:11;;;;;;;3.23;0.77;;;27.60;1.00;;;;;;5095316;28;20473;-71
2022/06/20 12:33:40;;;;;;;1.53;0.60;;;27.40;1.00;;;;;;5092512;28;20837;-73
2022/06/20 12:36:24;;;;;;;2.63;1.00;;;27.80;1.00;;;;;;5092417;28;20557;-73
2022/06/20 12:39:00;;;;;;;2.00;1.07;;;28.10;1.00;;;;;;5073397;28;20884;-72
2022/06/20 12:41:32;;;;;;;1.53;1.10;;;28.30;1.00;;;;;;5090394;28;20938;-74
2022/06/20 12:44:15;;;;;;;1.63;1.53;;;28.60;1.00;;;;;;5089709;28;20523;-74
2022/06/20 12:46:58;;;;;;;1.60;1.00;;;29.20;1.00;;;;;;5091234;28;20868;-73
2022/06/20 12:49:43;;;;;;;1.50;0.90;;;29.70;1.00;;;;;;5092099;28;20446;-72
2022/06/20 12:52:18;;;;;;;1.57;1.00;;;29.70;1.00;;;;;;5089807;28;20461;-73
2022/06/20 12:55:09;;;;;;;3.40;1.20;;;30.10;1.00;;;;;;5092852;28;20454;-73
2022/06/20 12:58:10;;;;;;;1.10;1.00;;;30.10;1.00;;;;;;5092870;28;20515;-72
2022/06/20 13:00:43;;;;;;;2.20;1.50;;;29.40;1.00;;;;;;5059503;28;20803;-72
2022/06/20 13:03:46;;;;;;;5.10;1.13;;;28.60;1.00;;;;;;5092244;28;20912;-73
2022/06/20 13:06:43;;;;;;;1.30;1.00;;;28.70;1.00;;;;;;5090454;28;20911;-73
2022/06/20 13:09:40;;;;;;;2.60;1.10;;;29.50;1.00;;;;;;5084478;28;20810;-71
2022/06/20 13:12:19;;;;;;;1.93;1.13;;;30.10;1.00;;;;;;5091538;28;20871;-73
2022/06/20 13:15:24;;;;;;;2.20;1.00;;;30.70;1.00;;;;;;5093512;28;20556;-72
2022/06/20 13:18:06;;;;;;;1.90;1.20;;;30.70;1.00;;;;;;5092353;28;20599;-73
2022/06/20 13:20:42;;;;;;;3.37;1.20;;;30.30;1.00;;;;;;5094881;28;20462;-73
2022/06/20 13:23:30;;;;;;;2.07;1.40;;;30.20;1.00;;;;;;5093209;28;20551;-72
2022/06/20 13:26:05;;;;;;;2.23;2.00;;;29.80;1.00;;;;;;5075007;28;20896;-73
2022/06/20 13:28:38;;;;;;;2.30;1.20;;;30.00;1.00;;;;;;5093215;28;20815;-73
2022/06/20 13:31:12;;;;;;;5.10;1.30;;;29.60;1.00;;;;;;5092841;28;20608;-74
2022/06/20 13:33:46;;;;;;;2.73;1.60;;;28.90;1.00;;;;;;5087700;28;20470;-74
2022/06/20 13:36:28;;;;;;;1.70;1.13;;;28.60;1.00;;;;;;5084663;28;20500;-73
2022/06/20 13:39:03;;;;;;;1.47;1.10;;;28.40;1.00;;;;;;5080668;28;20469;-74
2022/06/20 13:41:42;;;;;;;2.27;1.03;;;28.30;1.00;;;;;;5091538;28;20448;-73
2022/06/20 13:44:31;;;;;;;1.63;1.10;;;28.00;1.00;;;;;;5075500;28;20540;-74
2022/06/20 13:47:10;;;;;;;1.23;1.13;;;27.90;1.00;;;;;;5070561;28;20473;-74
2022/06/20 13:49:42;;;;;;;2.73;1.30;;;27.60;1.00;;;;;;5084745;28;21096;-74